METAR Data
IDs: Format: Raw Decoded Include TAF

Data at: 0147 UTC 14 May 2021

Region: TOP
KATL 140052Z 13003KT 10SM FEW070 17/07 A3021 RMK AO2 SLP227 T01720067

KATL 132326Z 1400/1506 06005KT P6SM FEW070
  FM141600 09006KT P6SM FEW060
  FM142300 08003KT P6SM FEW080


KBOS 140054Z 17007KT 10SM FEW100 15/06 A3012 RMK AO2 SLP199 T01500061

KBOS 132338Z 1400/1506 13009KT P6SM FEW090
  FM140100 20008KT P6SM FEW150
  FM140500 27005KT P6SM FEW250
  FM141600 29004KT P6SM FEW250
  FM142100 26005KT P6SM BKN070


KBWI 140054Z 00000KT 10SM SCT100 17/00 A3021 RMK AO2 SLP228 T01720000

KBWI 132320Z 1400/1506 31006KT P6SM SCT100
  FM140300 29003KT P6SM FEW080
  FM141500 34005KT P6SM SCT060
  FM150000 25003KT P6SM FEW250


KCLE 140051Z 00000KT 10SM CLR 15/M03 A3029 RMK AO2 SLP272 T01501028

KCLE 132325Z 1400/1506 VRB02KT P6SM SKC
  FM141900 35007KT P6SM FEW250


KCLT 140052Z VRB05KT 10SM CLR 17/02 A3022 RMK AO2 SLP230 T01720017

KCLT 132337Z 1400/1506 01005KT P6SM FEW080
  FM141500 VRB03KT P6SM SCT250
  FM141800 33006KT P6SM SCT100 BKN250


KCVG 140052Z 07006KT 10SM FEW090 16/M03 A3029 RMK AO2 SLP253 T01611028 $

KCVG 132338Z 1400/1506 VRB04KT P6SM SKC

KDCA 140052Z 34007KT 10SM SCT120 17/00 A3022 RMK AO2 SLP233 T01720000

KDCA 132320Z 1400/1506 32007KT P6SM SCT100
  FM140300 34004KT P6SM FEW080
  FM141500 35005KT P6SM SCT060
  FM150000 25003KT P6SM FEW250


KDEN 140053Z 06008KT 10SM FEW100 SCT140 BKN220 20/02 A3007 RMK AO2 SLP136 T02000017

KDEN 132323Z 1400/1506 01010KT P6SM SCT090 SCT150 BKN220
  FM140200 VRB05KT P6SM SCT090 BKN150
  FM140500 21006KT P6SM FEW080 SCT150
  FM141600 34008KT P6SM FEW080 SCT150
  FM141800 04008KT P6SM FEW080 SCT150
  FM142100 06012G18KT P6SM VCTS SCT080 BKN140CB
  PROB30 1423/1503 VRB20G35KT -TSRA BKN070CB
  FM150300 12009KT P6SM SCT080 BKN120


KDFW 140053Z 10007KT 10SM FEW070 21/09 A3019 RMK AO2 SLP219 ACC NW-NE T02110089

KDFW 132329Z 1400/1506 06006KT P6SM FEW050
  FM140200 12005KT P6SM SCT050
  FM141000 14005KT P6SM BKN030
  FM141600 16012KT P6SM SCT050


KDTW 140053Z 16005KT 10SM FEW100 FEW220 15/M02 A3029 RMK AO2 SLP257 T01501022

KDTW 132320Z 1400/1506 VRB04KT P6SM SCT090
  FM140100 VRB02KT P6SM SKC
  FM141500 25005KT P6SM FEW080


KEWR 140051Z 18009KT 10SM FEW090 FEW120 18/01 A3017 RMK AO2 SLP217 T01780011 $

KEWR 132328Z 1400/1506 15009KT P6SM SCT080
  FM140300 VRB05KT P6SM FEW080 FEW250
  FM141400 35005KT P6SM FEW080 SCT250
  FM141900 VRB05KT P6SM SCT080 SCT250
  FM142000 15009KT P6SM SCT080 SCT250
  FM150300 VRB04KT P6SM FEW250


KFLL 140053Z 03008KT 10SM SCT018 BKN130 26/24 A3003 RMK AO2 LTG DSNT SE AND S SLP169 T02560239

KFLL 132341Z 1400/1506 02008KT P6SM VCSH SCT020 BKN080 OVC120
  FM140200 VRB03KT P6SM FEW025 BKN250
  FM141300 35005KT P6SM FEW020 SCT120
  FM141800 02012KT P6SM VCTS SCT035CB BKN050
  FM150000 04010KT P6SM VCSH FEW020 SCT060 BKN120


KIAD 140052Z 00000KT 10SM FEW100 14/02 A3022 RMK AO2 SLP234 T01440022

KIAD 132320Z 1400/1506 33005KT P6SM FEW060 BKN120
  FM140300 33003KT P6SM FEW080
  FM141500 35005KT P6SM SCT060
  FM150000 25003KT P6SM FEW250


KIAH 140053Z 05006KT 10SM FEW039 BKN050 23/15 A3018 RMK AO2 SLP219 T02330150

KIAH 132324Z 1400/1506 05006KT P6SM SCT040 OVC050
  FM140500 VRB04KT P6SM SCT035 BKN050
  FM141400 07007KT P6SM SCT045
  FM141900 11008KT P6SM BKN050 BKN080
  FM150000 14007KT P6SM SCT035 BKN045


KJFK 140051Z 21012KT 10SM FEW110 14/03 A3019 RMK AO2 SLP223 T01440033

KJFK 132328Z 1400/1506 19015KT P6SM FEW080
  FM140200 20010KT P6SM FEW080
  FM140400 VRB05KT P6SM FEW250
  FM141400 28006KT P6SM SCT250
  FM141600 21008KT P6SM FEW080 SCT250
  FM141900 19013KT P6SM SCT080 SCT250
  FM150300 VRB05KT P6SM FEW250


KLAS 140056Z 20008KT 10SM FEW250 36/M08 A2983 RMK AO2 SLP076 T03561078

KLAS 140013Z 1400/1506 18012G18KT P6SM FEW250
  FM140200 22008KT P6SM SKC
  FM141100 VRB05KT P6SM SKC
  FM141700 08005KT P6SM SKC
  FM142100 20011KT P6SM SKC
  FM150400 22007KT P6SM FEW250


KLAX 140053Z 26011KT 10SM OVC011 16/13 A3000 RMK AO2 SLP159 T01560128

KLAX 132342Z 1400/1506 24012KT P6SM OVC012
  FM140300 26006KT P6SM OVC012
  FM141100 VRB03KT P6SM OVC009
  FM141700 26007KT P6SM OVC015
  FM142000 26012KT P6SM BKN015
  FM150100 27005KT P6SM OVC015


KLGA 140051Z 20008KT 10SM FEW085 FEW120 18/M02 A3017 RMK AO2 SLP216 T01781022

KLGA 132328Z 1400/1506 19011KT P6SM FEW080
  FM140100 20008KT P6SM FEW080
  FM140400 VRB05KT P6SM FEW250
  FM141400 04006KT P6SM FEW080 SCT250
  FM141900 21007KT P6SM SCT080 SCT250
  FM142100 20011KT P6SM SCT080 SCT250
  FM150300 VRB04KT P6SM FEW250


KMCO 140053Z 02012KT 10SM BKN021 OVC028 22/17 A3009 RMK AO2 SLP189 T02170172

KMCO 140117Z 1401/1506 01013KT P6SM BKN021 OVC028
  FM140600 36009KT P6SM SCT025 BKN070
  FM141400 01013KT P6SM SCT025 BKN040
  FM141700 03018G24KT P6SM SCT030 BKN050
  FM150200 02013KT P6SM SCT100 BKN250


KMDW 140053Z 12006KT 10SM FEW100 17/M07 A3031 RMK AO2 SLP264 T01721072

KMDW 132320Z 1400/1506 11008KT P6SM SCT100
  FM140500 24005KT P6SM FEW250
  FM141700 19007KT P6SM SCT070
  FM142100 12009KT P6SM SCT080
  FM150200 17005KT P6SM FEW080 SCT250


KMEM 140054Z 02007KT 10SM CLR 18/03 A3025 RMK AO2 SLP241 T01830028 $

KMEM 132320Z 1400/1506 03011G18KT P6SM FEW060
  FM140100 06005KT P6SM SKC
  FM141500 07007KT P6SM SKC
  FM150200 06006KT P6SM FEW100


KMIA 140121Z VRB03KT 10SM -RA BKN018 BKN075 26/24 A3004 RMK AO2 LTG DSNT E CB DSNT E P0000 T02560239 $

KMIA 132341Z 1400/1506 VRB05KT P6SM VCSH SCT020 BKN060 OVC120
  FM140200 VRB03KT P6SM FEW025 BKN250
  FM141300 35005KT P6SM FEW020 SCT120
  FM141800 02011KT P6SM VCTS SCT035CB BKN050
  FM150000 04010KT P6SM VCSH FEW020 SCT060 BKN120


KMSP 140053Z 17010KT 10SM FEW100 20/M05 A3020 RMK AO2 SLP227 T02001050

KMSP 132326Z 1400/1506 17009KT P6SM SCT100
  FM141700 17010KT P6SM OVC070
  FM142100 15011KT P6SM -SHRA OVC045


KORD 140051Z 11006KT 10SM FEW100 17/M06 A3030 RMK AO2 SLP259 T01671056

KORD 132320Z 1400/1506 11008KT P6SM SCT100
  FM140500 24005KT P6SM FEW250
  FM141700 19007KT P6SM SCT070
  FM142300 12009KT P6SM SCT080
  FM150200 17005KT P6SM FEW080 SCT250


KPDX 140053Z 32012G16KT 10SM FEW035 BKN200 BKN250 24/08 A3005 RMK AO2 SLP177 T02390078

KPDX 132324Z 1400/1424 32009KT P6SM BKN250
  FM140900 33004KT P6SM BKN200
  FM142300 31011G17KT P6SM SCT250


KPHL 140054Z 14007KT 10SM SCT110 17/02 A3019 RMK AO2 SLP223 T01670017

KPHL 132320Z 1400/1506 VRB04KT P6SM SKC
  FM141300 36005KT P6SM SKC
  FM141600 30007KT P6SM BKN200
  FM142000 26007KT P6SM BKN200
  FM150200 VRB03KT P6SM BKN200


KPHX 140051Z 30013G17KT 10SM FEW250 38/M06 A2980 RMK AO2 SLP071 T03781061

KPHX 132320Z 1400/1506 26007KT P6SM SKC
  FM140900 11005KT P6SM SKC
  FM142000 24007KT P6SM FEW150


KPIT 140051Z 30003KT 10SM FEW110 13/01 A3026 RMK AO2 SLP256 T01280011

KPIT 132320Z 1400/1506 VRB05KT P6SM SKC
  FM141900 VRB05KT P6SM BKN090
  FM150100 VRB05KT P6SM SKC


KSAN 140051Z 30009G15KT 10SM FEW020 19/12 A3000 RMK AO2 SLP159 T01940117

KSAN 132337Z 1400/1506 32008KT P6SM FEW020
  FM140330 30005KT P6SM BKN017
  FM141900 28010KT P6SM BKN020
  FM142200 28010KT P6SM SCT022
  FM150200 29005KT P6SM BKN022


KSEA 140053Z 35013KT 10SM FEW040 SCT250 22/04 A3014 RMK AO2 SLP211 T02170039

KSEA 132328Z 1400/1506 33010KT P6SM FEW250
  FM140600 02005KT P6SM FEW250
  FM141200 02003KT 5SM BR SCT008
  FM141700 33004KT P6SM FEW250
  FM142100 32010KT P6SM FEW250


KSFO 140056Z 29020KT 10SM FEW004 FEW200 14/08 A2999 RMK AO2 SLP156 T01440083

KSFO 140057Z 1401/1506 29017KT P6SM FEW030 FEW200
  FM140400 27013KT P6SM SCT007 BKN012
  FM140800 27007KT P6SM FEW005 OVC007
  FM141700 25010KT P6SM OVC012
  FM142100 27017KT P6SM BKN015
  FM142200 28020KT P6SM SCT015 SCT200
  FM150200 27018KT P6SM OVC015


KSLC 140054Z 33007KT 10SM FEW095 FEW150 SCT240 28/M07 A2998 RMK AO2 SLP105 T02831067

KSLC 132320Z 1400/1506 33009KT P6SM FEW200
  FM140400 15006KT P6SM SCT200
  FM141800 31009KT P6SM SCT200
  FM150400 14005KT P6SM SCT120 BKN150


KSTL 140051Z 10007KT 10SM FEW085 16/01 A3031 RMK AO2 SLP262 T01610006

KSTL 132320Z 1400/1506 VRB05KT P6SM SCT080
  FM140100 VRB04KT P6SM SKC
  FM141600 15008KT P6SM FEW050 BKN120


KTPA 140053Z 03008KT 10SM FEW025 SCT250 24/18 A3008 RMK AO2 SLP185 T02440183

KTPA 132330Z 1400/1506 02006KT P6SM SCT015 BKN030 OVC200
  FM141300 03008KT P6SM SCT030 BKN250
  FM141800 36010G18KT P6SM SCT040 BKN250